Time;durP1;ratioP1;P1;durP2;ratioP2;P2;SDS_P1;SDS_P2;PMS_P1;PMS_P2;Temp;Humidity;BMP_temperature;BMP_pressure;BME280_temperature;BME280_humidity;BME280_pressure;Samples;Min_cycle;Max_cycle;Signal;HPM_P1;HPM_P2
2023/11/18 00:01:15;;;;;;;3.55;1.80;;;;;;;8.32;87.63;101672.56;4966200;28;20031;-71
2023/11/18 00:03:40;;;;;;;3.40;1.88;;;;;;;8.25;87.66;101669.53;4967695;28;20038;-71
2023/11/18 00:06:07;;;;;;;4.43;1.60;;;;;;;8.31;87.59;101673.66;4968724;28;20096;-71
2023/11/18 00:08:33;;;;;;;4.50;2.33;;;;;;;8.28;87.64;101670.81;4969772;28;20034;-71
2023/11/18 00:10:58;;;;;;;3.40;1.98;;;;;;;8.37;87.60;101666.22;4961114;28;20579;-71
2023/11/18 00:13:26;;;;;;;3.00;1.52;;;;;;;8.34;87.24;101669.56;4966213;28;20790;-70
2023/11/18 00:15:52;;;;;;;4.07;1.98;;;;;;;8.31;87.61;101681.69;4963253;28;20073;-71
2023/11/18 00:18:18;;;;;;;2.97;1.48;;;;;;;8.41;87.58;101676.03;4966554;28;20034;-71
2023/11/18 00:20:45;;;;;;;6.82;1.95;;;;;;;8.37;87.56;101667.03;4966715;28;20409;-71
2023/11/18 00:23:11;;;;;;;3.97;1.63;;;;;;;8.31;88.17;101673.66;4961949;28;20022;-70
2023/11/18 00:25:39;;;;;;;2.30;1.73;;;;;;;8.36;87.69;101664.66;4952494;28;20616;-71
2023/11/18 00:28:07;;;;;;;3.15;1.95;;;;;;;8.38;87.65;101657.84;4967840;28;20043;-71
2023/11/18 00:30:33;;;;;;;4.40;1.85;;;;;;;8.37;87.96;101658.19;4961798;28;20054;-71
2023/11/18 00:32:58;;;;;;;3.70;1.85;;;;;;;8.38;87.84;101651.72;4985150;28;20050;-71
2023/11/18 00:35:24;;;;;;;4.88;2.35;;;;;;;8.37;87.69;101656.28;4964111;28;20038;-71
2023/11/18 00:37:53;;;;;;;3.85;1.92;;;;;;;8.45;87.55;101670.81;4969308;28;20413;-71
2023/11/18 00:40:18;;;;;;;3.00;1.63;;;;;;;8.40;87.89;101663.69;4967272;28;20039;-71
2023/11/18 00:42:45;;;;;;;3.13;1.92;;;;;;;8.42;87.56;101658.81;4967876;28;20516;-71
2023/11/18 00:45:12;;;;;;;3.80;2.10;;;;;;;8.36;87.91;101662.78;4982838;28;20059;-71
2023/11/18 00:47:38;;;;;;;2.97;1.83;;;;;;;8.43;87.89;101660.41;4967277;28;20043;-71
2023/11/18 00:50:08;;;;;;;2.67;2.15;;;;;;;8.47;87.79;101661.34;4976804;28;20030;-70
2023/11/18 00:52:39;;;;;;;4.15;2.30;;;;;;;8.44;87.80;101661.19;4966007;28;20026;-70
2023/11/18 00:55:10;;;;;;;3.92;2.15;;;;;;;8.31;88.15;101665.59;4985689;28;20027;-71
2023/11/18 00:57:39;;;;;;;3.60;1.23;;;;;;;8.39;88.50;101670.19;4976691;28;20109;-71
2023/11/18 01:00:08;;;;;;;5.97;2.35;;;;;;;8.53;87.63;101670.03;4967989;28;20170;-71
2023/11/18 01:02:34;;;;;;;2.28;1.73;;;;;;;8.51;86.98;101672.25;4983171;28;20043;-71
2023/11/18 01:04:59;;;;;;;3.33;2.30;;;;;;;8.49;87.63;101669.88;4970254;28;20089;-70
2023/11/18 01:07:24;;;;;;;4.38;1.85;;;;;;;8.51;87.48;101672.25;4967031;28;20498;-71
2023/11/18 01:09:52;;;;;;;2.78;2.50;;;;;;;8.52;87.81;101679.19;4982704;28;20089;-71
2023/11/18 01:12:18;;;;;;;3.78;1.67;;;;;;;8.39;87.96;101680.91;4971829;28;20102;-69
2023/11/18 01:14:43;;;;;;;5.25;2.10;;;;;;;8.25;88.22;101666.84;4972020;28;20051;-70
2023/11/18 01:17:13;;;;;;;2.13;1.20;;;;;;;8.35;88.39;101665.75;4973407;28;20101;-71
2023/11/18 01:19:39;;;;;;;3.35;1.95;;;;;;;8.37;88.80;101675.06;4977162;28;20154;-70
2023/11/18 01:22:08;;;;;;;3.22;2.13;;;;;;;8.37;88.48;101667.03;4967397;28;20556;-70
2023/11/18 01:24:35;;;;;;;2.72;1.88;;;;;;;8.30;88.64;101677.44;4973103;28;20026;-70
2023/11/18 01:27:00;;;;;;;2.72;1.60;;;;;;;8.44;88.46;101680.00;4977414;28;20049;-71
2023/11/18 01:29:26;;;;;;;2.67;1.98;;;;;;;8.47;88.16;101679.34;4972044;28;20034;-71
2023/11/18 01:31:52;;;;;;;2.38;1.88;;;;;;;8.51;87.91;101677.63;4978202;28;20030;-70
2023/11/18 01:34:22;;;;;;;6.45;1.60;;;;;;;8.52;87.46;101679.97;4975816;28;20101;-70
2023/11/18 01:36:51;;;;;;;4.10;2.22;;;;;;;8.43;87.97;101687.25;4967686;28;20063;-71
2023/11/18 01:39:20;;;;;;;4.03;2.05;;;;;;;8.46;88.12;101675.88;4966013;28;20035;-71
2023/11/18 01:41:46;;;;;;;4.95;1.92;;;;;;;8.51;87.69;101681.09;4974842;28;20655;-70
2023/11/18 01:44:13;;;;;;;2.80;1.92;;;;;;;8.54;87.45;101679.66;4973791;28;20027;-71
2023/11/18 01:46:40;;;;;;;4.93;2.03;;;;;;;8.54;87.29;101683.13;4971043;28;20553;-71
2023/11/18 01:49:07;;;;;;;2.75;1.48;;;;;;;8.53;87.28;101686.94;4973450;28;20421;-71
2023/11/18 01:51:35;;;;;;;3.13;1.70;;;;;;;8.56;87.73;101680.13;4973895;28;20035;-71
2023/11/18 01:54:03;;;;;;;3.47;2.10;;;;;;;8.46;88.21;101688.53;4967045;28;20058;-71
2023/11/18 01:56:31;;;;;;;4.60;2.50;;;;;;;8.47;88.54;101676.66;4967954;28;20519;-71
2023/11/18 01:58:58;;;;;;;2.58;1.67;;;;;;;8.52;88.17;101676.50;4968010;28;20067;-71
2023/11/18 02:01:27;;;;;;;4.82;2.05;;;;;;;8.52;87.61;101676.50;4956519;28;20038;-71
2023/11/18 02:03:53;;;;;;;2.15;1.73;;;;;;;8.45;87.70;101679.66;4971726;28;20150;-71
2023/11/18 02:06:21;;;;;;;2.55;1.88;;;;;;;8.45;88.00;101682.34;4970322;28;20121;-71
2023/11/18 02:08:47;;;;;;;4.25;2.20;;;;;;;8.51;88.07;101686.47;4972080;28;20019;-71
2023/11/18 02:11:32;;;;;;;3.65;2.38;;;;;;;8.54;87.28;101691.19;4970514;28;20482;-70
2023/11/18 02:14:04;;;;;;;6.30;2.08;;;;;;;8.52;87.36;101685.34;4959958;28;20035;-71
2023/11/18 02:16:34;;;;;;;4.20;1.92;;;;;;;8.46;87.86;101694.66;4971138;28;20055;-71
2023/11/18 02:19:01;;;;;;;3.17;1.95;;;;;;;8.48;87.87;101692.44;4972672;28;20034;-71
2023/11/18 02:21:27;;;;;;;3.38;1.90;;;;;;;8.54;87.32;101688.50;4973214;28;20046;-70
2023/11/18 02:23:53;;;;;;;3.83;2.33;;;;;;;8.52;87.39;101697.97;4970550;28;20041;-71
2023/11/18 02:26:22;;;;;;;2.10;1.48;;;;;;;8.50;87.50;101698.28;4968313;28;20126;-71
2023/11/18 02:28:49;;;;;;;2.30;2.10;;;;;;;8.48;87.78;101695.13;4974227;28;20401;-71
2023/11/18 02:31:25;;;;;;;3.55;1.98;;;;;;;8.44;87.96;101698.78;4984885;28;20038;-71
2023/11/18 02:34:06;;;;;;;2.88;1.63;;;;;;;8.45;87.66;101701.13;4987080;28;20053;-71
2023/11/18 02:36:37;;;;;;;3.83;1.97;;;;;;;8.47;87.97;101712.34;4967226;28;20042;-71
2023/11/18 02:39:11;;;;;;;5.10;2.17;;;;;;;8.44;88.36;101712.97;4967698;28;20042;-71
2023/11/18 02:41:39;;;;;;;3.75;2.05;;;;;;;8.38;88.40;101716.91;4968819;28;20035;-71
2023/11/18 02:44:10;;;;;;;4.07;2.47;;;;;;;8.34;88.57;101713.28;4971391;28;20086;-71
2023/11/18 02:46:36;;;;;;;3.90;2.10;;;;;;;8.44;88.63;101722.94;4974078;28;20027;-71
2023/11/18 02:49:03;;;;;;;2.60;1.92;;;;;;;8.39;88.32;101721.19;4970494;28;20396;-71
2023/11/18 02:51:31;;;;;;;2.28;1.60;;;;;;;8.45;88.30;101725.28;4984695;28;20034;-71
2023/11/18 02:53:57;;;;;;;3.08;1.83;;;;;;;8.50;88.41;101727.81;4965135;28;20098;-71
2023/11/18 02:56:23;;;;;;;4.22;2.05;;;;;;;8.46;88.48;101724.19;4966533;28;20126;-71
2023/11/18 02:58:48;;;;;;;3.65;2.03;;;;;;;8.45;88.63;101727.97;4985058;28;20038;-70
2023/11/18 03:01:14;;;;;;;2.85;1.77;;;;;;;8.47;88.75;101719.59;4979253;28;20296;-71
2023/11/18 03:03:39;;;;;;;3.53;2.60;;;;;;;8.46;88.93;101723.41;4987052;28;20030;-70
2023/11/18 03:06:06;;;;;;;5.00;1.98;;;;;;;8.46;89.09;101724.19;4985622;28;20035;-70
2023/11/18 03:08:31;;;;;;;4.68;2.38;;;;;;;8.50;88.18;101729.69;4980660;28;20062;-70
2023/11/18 03:10:58;;;;;;;4.15;2.58;;;;;;;8.50;87.84;101721.66;4990677;28;20023;-71
2023/11/18 03:13:24;;;;;;;3.88;2.20;;;;;;;8.46;88.34;101729.53;4965957;28;20035;-71
2023/11/18 03:15:51;;;;;;;3.05;2.22;;;;;;;8.46;88.70;101718.81;4967150;28;20064;-71
2023/11/18 03:18:17;;;;;;;4.03;2.55;;;;;;;8.54;88.05;101727.97;4977399;28;20035;-71
2023/11/18 03:20:43;;;;;;;4.13;2.40;;;;;;;8.55;87.67;101733.06;4960064;28;20030;-70
2023/11/18 03:23:09;;;;;;;2.38;1.63;;;;;;;8.58;87.76;101727.03;4983124;28;20038;-71
2023/11/18 03:25:35;;;;;;;3.05;1.58;;;;;;;8.57;87.85;101725.47;4980391;28;20030;-71
2023/11/18 03:28:01;;;;;;;2.80;1.77;;;;;;;8.51;88.37;101718.69;4959244;28;20513;-71
2023/11/18 03:30:28;;;;;;;3.20;2.20;;;;;;;8.53;87.95;101719.16;4982341;28;20035;-71
2023/11/18 03:32:54;;;;;;;5.45;2.45;;;;;;;8.54;87.99;101725.28;4967125;28;20038;-71
2023/11/18 03:35:20;;;;;;;8.35;2.05;;;;;;;8.51;88.01;101721.34;4980493;28;20522;-71
2023/11/18 03:37:46;;;;;;;2.60;1.95;;;;;;;8.51;87.89;101720.56;4962501;28;20113;-71
2023/11/18 03:40:14;;;;;;;3.15;2.30;;;;;;;8.53;87.99;101721.03;4965780;28;20053;-71
2023/11/18 03:42:41;;;;;;;2.00;1.73;;;;;;;8.55;88.38;101718.84;4964847;28;20034;-71
2023/11/18 03:45:10;;;;;;;4.25;2.22;;;;;;;8.44;88.44;101706.81;4964554;28;20026;-71
2023/11/18 03:47:35;;;;;;;2.05;1.42;;;;;;;8.40;89.25;101705.88;4977442;28;20074;-71
2023/11/18 03:50:01;;;;;;;3.67;2.05;;;;;;;8.39;88.84;101710.44;4982704;28;20039;-71
2023/11/18 03:52:30;;;;;;;2.25;1.58;;;;;;;8.42;88.94;101725.91;4972350;28;20033;-71
2023/11/18 03:54:55;;;;;;;2.22;1.70;;;;;;;8.39;89.26;101721.19;4973326;28;20035;-71
2023/11/18 03:57:21;;;;;;;3.08;1.70;;;;;;;8.47;88.58;101725.78;4970138;28;20037;-70
2023/11/18 03:59:46;;;;;;;6.68;1.60;;;;;;;8.49;88.78;101723.56;4970658;28;20031;-71
2023/11/18 04:02:12;;;;;;;2.50;1.50;;;;;;;8.54;87.68;101728.78;4968680;28;20031;-71
2023/11/18 04:04:38;;;;;;;3.45;1.60;;;;;;;8.47;88.72;101728.47;4970566;28;20030;-71
2023/11/18 04:07:04;;;;;;;3.47;2.00;;;;;;;8.53;88.42;101737.94;4972645;28;20591;-71
2023/11/18 04:09:33;;;;;;;4.30;1.95;;;;;;;8.47;88.12;101741.06;4972799;28;20062;-71
2023/11/18 04:11:59;;;;;;;2.97;1.73;;;;;;;8.47;88.92;101741.88;4971018;28;20114;-71
2023/11/18 04:14:25;;;;;;;2.55;1.65;;;;;;;8.47;88.32;101744.56;4968488;28;20117;-71
2023/11/18 04:16:51;;;;;;;4.80;2.00;;;;;;;8.48;88.63;101740.75;4971293;28;20027;-71
2023/11/18 04:19:17;;;;;;;3.75;2.25;;;;;;;8.44;88.89;101739.81;4965171;28;20030;-71
2023/11/18 04:21:43;;;;;;;2.40;1.55;;;;;;;8.48;88.83;101734.63;4969435;28;20062;-71
2023/11/18 04:24:09;;;;;;;1.67;1.27;;;;;;;8.40;88.63;101738.84;4981939;28;20035;-71
2023/11/18 04:26:34;;;;;;;2.63;1.60;;;;;;;8.39;89.07;101731.91;4982730;28;20034;-71
2023/11/18 04:29:00;;;;;;;4.00;1.92;;;;;;;8.44;88.78;101731.75;4966251;28;20101;-71
2023/11/18 04:31:25;;;;;;;3.13;1.65;;;;;;;8.42;89.11;101733.97;4967170;28;20039;-71
2023/11/18 04:33:51;;;;;;;1.83;1.20;;;;;;;8.46;88.99;101734.91;4965673;28;20487;-71
2023/11/18 04:36:16;;;;;;;7.00;1.88;;;;;;;8.51;88.66;101737.47;4966977;28;20035;-71
2023/11/18 04:38:45;;;;;;;2.05;1.85;;;;;;;8.49;88.48;101728.94;4967379;28;20034;-71
2023/11/18 04:41:11;;;;;;;1.80;1.33;;;;;;;8.44;88.53;101722.94;4971885;28;20609;-71
2023/11/18 04:43:41;;;;;;;3.22;1.95;;;;;;;8.46;88.79;101721.50;4969719;28;20089;-71
2023/11/18 04:46:07;;;;;;;2.55;1.80;;;;;;;8.45;89.11;101727.97;4982794;28;20493;-71
2023/11/18 04:48:34;;;;;;;2.60;1.83;;;;;;;8.48;88.88;101727.34;4980532;28;20039;-71
2023/11/18 04:51:00;;;;;;;2.47;1.48;;;;;;;8.29;89.53;101720.66;4979485;28;20082;-71
2023/11/18 04:53:25;;;;;;;3.20;2.13;;;;;;;8.42;89.43;101725.91;4964236;28;20043;-71
2023/11/18 04:55:51;;;;;;;4.18;1.95;;;;;;;8.33;89.54;101735.84;4965118;28;20042;-71
2023/11/18 04:58:17;;;;;;;2.47;2.08;;;;;;;8.30;90.14;101728.44;4984067;28;20047;-71
2023/11/18 05:00:42;;;;;;;5.28;1.85;;;;;;;8.32;89.64;101733.47;4967854;28;20101;-70
2023/11/18 05:03:14;;;;;;;5.35;1.92;;;;;;;8.40;89.45;101735.41;4965707;28;20421;-71
2023/11/18 05:05:40;;;;;;;2.55;1.45;;;;;;;8.34;90.05;101726.72;4993118;28;20038;-71
2023/11/18 05:08:08;;;;;;;4.38;1.95;;;;;;;8.38;89.70;101733.00;4971395;28;20041;-70
2023/11/18 05:10:34;;;;;;;2.40;1.55;;;;;;;8.50;88.66;101718.97;4973541;28;20022;-70
2023/11/18 05:13:03;;;;;;;2.50;1.40;;;;;;;8.47;88.45;101724.97;4967720;28;20034;-70
2023/11/18 05:15:30;;;;;;;3.25;1.88;;;;;;;8.42;88.95;101725.13;4989945;28;20532;-70
2023/11/18 05:17:55;;;;;;;2.97;1.67;;;;;;;8.48;88.94;101721.97;4971176;28;20039;-70
2023/11/18 05:20:23;;;;;;;2.95;1.70;;;;;;;8.57;87.80;101713.94;4975942;28;20051;-70
2023/11/18 05:22:49;;;;;;;3.33;2.47;;;;;;;8.44;88.14;101710.28;4985300;28;20046;-70
2023/11/18 05:25:15;;;;;;;3.85;2.00;;;;;;;8.36;89.26;101710.28;4973227;28;20038;-71
2023/11/18 05:27:44;;;;;;;3.08;1.88;;;;;;;8.37;89.29;101696.53;4975468;28;20038;-70
2023/11/18 05:30:10;;;;;;;2.42;1.40;;;;;;;8.32;89.26;101696.72;4964582;28;20621;-71
2023/11/18 05:32:36;;;;;;;3.42;2.10;;;;;;;8.31;88.93;101694.31;4975257;28;20042;-70
2023/11/18 05:35:04;;;;;;;3.75;1.95;;;;;;;8.29;89.09;101691.94;4971355;28;20045;-70
2023/11/18 05:37:35;;;;;;;2.97;1.73;;;;;;;8.34;89.09;101697.19;4973168;28;20042;-70
2023/11/18 05:40:06;;;;;;;2.25;1.45;;;;;;;8.33;88.27;101687.53;4972908;28;20027;-71
2023/11/18 05:42:32;;;;;;;;;;;;;;;8.29;88.42;101691.16;4974609;28;20042;-71
2023/11/18 05:45:01;;;;;;;2.80;1.38;;;;;;;8.22;89.01;101691.59;4969712;28;19914;-70
2023/11/18 05:47:29;;;;;;;2.13;1.42;;;;;;;8.21;89.41;101693.50;4974392;28;20533;-70
2023/11/18 05:49:55;;;;;;;2.35;1.58;;;;;;;8.26;88.99;101689.91;4968204;28;20079;-70
2023/11/18 05:52:21;;;;;;;6.13;2.40;;;;;;;8.22;88.86;101686.25;4967260;28;20502;-69
2023/11/18 05:54:47;;;;;;;2.70;2.20;;;;;;;8.20;89.54;101683.88;4967126;28;20041;-70
2023/11/18 05:57:14;;;;;;;2.13;1.63;;;;;;;8.19;89.06;101693.00;4990108;28;20421;-68
2023/11/18 05:59:40;;;;;;;1.75;1.45;;;;;;;8.15;89.54;101686.69;4969643;28;20078;-70
2023/11/18 06:02:05;;;;;;;7.18;2.20;;;;;;;8.16;89.66;101688.28;4974079;28;20061;-71
2023/11/18 06:04:31;;;;;;;2.95;1.80;;;;;;;8.15;89.45;101684.00;4972747;28;20045;-70
2023/11/18 06:06:56;;;;;;;4.65;2.00;;;;;;;8.22;88.63;101686.25;4979197;28;20101;-70
2023/11/18 06:09:25;;;;;;;4.38;2.10;;;;;;;8.29;88.65;101681.22;4971937;28;20031;-71
2023/11/18 06:11:53;;;;;;;4.15;1.83;;;;;;;8.22;88.47;101675.50;4974318;28;20026;-70
2023/11/18 06:14:19;;;;;;;3.88;2.53;;;;;;;8.19;87.70;101681.47;4975576;28;20105;-69
2023/11/18 06:16:45;;;;;;;5.30;2.53;;;;;;;8.17;88.31;101679.13;4972019;28;20053;-71
2023/11/18 06:19:10;;;;;;;1.55;1.38;;;;;;;7.99;89.01;101684.75;4972930;28;20046;-70
2023/11/18 06:21:36;;;;;;;2.65;1.73;;;;;;;8.02;88.47;101687.59;4989218;28;20031;-70
2023/11/18 06:24:06;;;;;;;3.30;1.77;;;;;;;7.91;88.58;101690.88;4989365;28;20055;-69
2023/11/18 06:26:31;;;;;;;3.55;1.65;;;;;;;7.81;89.15;101685.81;4990400;28;20041;-70
2023/11/18 06:28:57;;;;;;;5.95;2.15;;;;;;;7.77;89.75;101692.88;4984919;28;20066;-69
2023/11/18 06:31:25;;;;;;;4.80;2.40;;;;;;;7.86;88.89;101685.66;5006676;28;20125;-72
2023/11/18 06:33:52;;;;;;;3.58;1.80;;;;;;;7.88;88.50;101692.28;4993799;28;20034;-70
2023/11/18 06:36:21;;;;;;;3.45;2.05;;;;;;;7.86;88.38;101693.69;4971297;28;20026;-70
2023/11/18 06:38:49;;;;;;;3.78;1.85;;;;;;;7.77;87.99;101685.63;4972372;28;20023;-70
2023/11/18 06:41:16;;;;;;;3.47;1.95;;;;;;;7.73;88.96;101683.88;4973014;28;20399;-70
2023/11/18 06:44:01;;;;;;;3.20;1.70;;;;;;;7.74;88.97;101682.78;4971324;28;20113;-70
2023/11/18 06:46:29;;;;;;;3.85;2.03;;;;;;;7.76;87.80;101697.44;4970548;28;20046;-70
2023/11/18 06:48:55;;;;;;;2.95;2.28;;;;;;;7.76;87.19;101694.00;4969716;28;20035;-71
2023/11/18 06:51:24;;;;;;;3.03;2.10;;;;;;;7.65;87.63;101698.81;4970343;28;20034;-70
2023/11/18 06:53:57;;;;;;;3.63;2.28;;;;;;;7.50;88.13;101685.03;4964680;28;20718;-70
2023/11/18 06:56:23;;;;;;;2.25;1.83;;;;;;;7.45;87.95;101685.97;4969195;28;20035;-70
2023/11/18 06:58:49;;;;;;;4.32;2.55;;;;;;;7.40;88.74;101690.66;4971284;28;20514;-70
2023/11/18 07:01:15;;;;;;;3.95;2.13;;;;;;;7.41;88.77;101702.97;4984279;28;20042;-70
2023/11/18 07:03:42;;;;;;;4.43;2.35;;;;;;;7.45;88.03;101707.41;4969233;28;20038;-71
2023/11/18 07:06:09;;;;;;;5.15;2.05;;;;;;;7.51;87.45;101711.53;4971183;28;20035;-70
2023/11/18 07:08:39;;;;;;;2.85;1.88;;;;;;;7.47;87.46;101707.09;4969191;28;20125;-70
2023/11/18 07:11:06;;;;;;;4.57;2.65;;;;;;;7.45;87.97;101720.03;4983673;28;20118;-70
2023/11/18 07:13:35;;;;;;;4.65;2.78;;;;;;;7.47;87.75;101725.84;4968689;28;20117;-70
2023/11/18 07:16:03;;;;;;;4.00;1.88;;;;;;;7.46;88.59;101732.31;4968303;28;20042;-69
2023/11/18 07:18:31;;;;;;;4.60;1.95;;;;;;;7.52;88.12;101737.22;4969530;28;20349;-70
2023/11/18 07:21:00;;;;;;;2.28;2.03;;;;;;;7.53;88.19;101736.13;4969871;28;20058;-70
2023/11/18 07:23:26;;;;;;;4.38;1.85;;;;;;;7.57;87.74;101741.69;4963111;28;20054;-70
2023/11/18 07:25:53;;;;;;;6.30;2.95;;;;;;;7.53;87.37;101752.22;4967647;28;20126;-70
2023/11/18 07:28:18;;;;;;;3.88;2.50;;;;;;;7.53;87.61;101756.78;4970683;28;20041;-70
2023/11/18 07:30:47;;;;;;;5.97;3.03;;;;;;;7.42;87.12;101747.41;4963509;28;20035;-70
2023/11/18 07:33:16;;;;;;;5.38;2.83;;;;;;;7.39;88.02;101753.38;4978778;28;20038;-70
2023/11/18 07:35:43;;;;;;;4.53;2.13;;;;;;;7.43;88.29;101762.41;4962657;28;20047;-70
2023/11/18 07:38:10;;;;;;;3.30;2.17;;;;;;;7.46;88.51;101746.50;4981961;28;20054;-70
2023/11/18 07:40:42;;;;;;;7.38;2.13;;;;;;;7.53;87.70;101735.34;4968884;28;20541;-70
2023/11/18 07:43:10;;;;;;;4.60;2.42;;;;;;;7.59;86.72;101732.22;4966698;28;20030;-70
2023/11/18 07:45:39;;;;;;;5.60;2.58;;;;;;;7.49;86.85;101721.75;4964578;28;20045;-70
2023/11/18 07:48:08;;;;;;;3.05;1.95;;;;;;;7.44;87.17;101732.63;4966384;28;20185;-70
2023/11/18 07:50:37;;;;;;;7.97;2.13;;;;;;;7.45;87.51;101733.41;4965966;28;20038;-70
2023/11/18 07:53:06;;;;;;;4.70;2.25;;;;;;;7.29;88.42;101739.16;4966235;28;20027;-70
2023/11/18 07:55:34;;;;;;;4.35;2.55;;;;;;;7.29;88.74;101749.88;4968291;28;20456;-70
2023/11/18 07:58:03;;;;;;;2.42;1.90;;;;;;;7.43;88.29;101749.00;4968017;28;20501;-70
2023/11/18 08:00:33;;;;;;;3.83;2.22;;;;;;;7.49;87.97;101745.09;4982908;28;20038;-70
2023/11/18 08:03:00;;;;;;;2.65;2.03;;;;;;;7.50;87.59;101749.34;4960769;28;20453;-70
2023/11/18 08:05:26;;;;;;;4.40;2.92;;;;;;;7.51;87.88;101740.22;4982135;28;20034;-70
2023/11/18 08:07:53;;;;;;;4.72;2.13;;;;;;;7.45;87.78;101744.94;4961766;28;20027;-70
2023/11/18 08:10:19;;;;;;;6.35;2.80;;;;;;;7.45;87.89;101749.50;4974940;28;20063;-70
2023/11/18 08:12:46;;;;;;;4.53;1.55;;;;;;;7.34;88.01;101735.53;4964636;28;20093;-70
2023/11/18 08:15:12;;;;;;;7.70;1.88;;;;;;;7.46;88.53;101737.66;4969025;28;20110;-70
2023/11/18 08:17:37;;;;;;;3.33;2.65;;;;;;;7.62;88.93;101736.19;4963270;28;20102;-71
2023/11/18 08:20:15;;;;;;;3.30;1.92;;;;;;;7.64;88.21;101739.34;4981117;28;20422;-71
2023/11/18 08:22:43;;;;;;;6.55;2.22;;;;;;;7.72;87.81;101743.97;4966180;28;20034;-72
2023/11/18 08:25:12;;;;;;;4.78;2.35;;;;;;;7.72;87.87;101754.69;4964329;28;20157;-71
2023/11/18 08:27:41;;;;;;;4.30;2.55;;;;;;;7.78;87.84;101751.53;4959612;28;20092;-72
2023/11/18 08:30:11;;;;;;;4.57;2.45;;;;;;;7.89;87.02;101754.75;4965162;28;20139;-72
2023/11/18 08:32:41;;;;;;;4.60;2.30;;;;;;;7.90;86.76;101759.00;4966569;28;20077;-72
2023/11/18 08:35:09;;;;;;;5.00;1.85;;;;;;;7.97;87.17;101759.38;4965474;28;20453;-72
2023/11/18 08:37:38;;;;;;;3.33;1.95;;;;;;;8.09;86.89;101757.69;4962729;28;20027;-72
2023/11/18 08:40:14;;;;;;;3.47;2.10;;;;;;;8.21;85.74;101740.97;4977889;28;20160;-71
2023/11/18 08:42:50;;;;;;;4.25;2.38;;;;;;;8.26;85.67;101730.16;4953236;28;20035;-70
2023/11/18 08:45:17;;;;;;;4.28;2.17;;;;;;;8.29;85.25;101726.84;4960788;28;20032;-72
2023/11/18 08:47:44;;;;;;;3.85;1.75;;;;;;;8.31;85.19;101721.94;4965500;28;20109;-71
2023/11/18 08:50:12;;;;;;;2.35;1.90;;;;;;;8.33;85.77;101727.78;4950390;28;20101;-71
2023/11/18 08:52:43;;;;;;;5.70;2.00;;;;;;;8.41;85.99;101720.84;4963523;28;20039;-71
2023/11/18 08:55:17;;;;;;;6.22;2.33;;;;;;;8.57;85.47;101730.03;4962194;28;20093;-71
2023/11/18 08:57:57;;;;;;;3.70;1.42;;;;;;;8.66;85.20;101728.94;4969306;28;20510;-71
2023/11/18 09:03:17;;;;;;;4.45;1.58;;;;;;;8.84;83.34;101719.81;4960531;28;20031;-71
2023/11/18 09:06:03;;;;;;;4.22;2.35;;;;;;;8.97;82.78;101715.34;4966931;28;20038;-71
2023/11/18 09:08:36;;;;;;;2.38;1.38;;;;;;;9.17;82.04;101712.03;4980102;28;20118;-71
2023/11/18 09:11:07;;;;;;;3.22;1.63;;;;;;;9.23;82.03;101709.97;4985425;28;20097;-71
2023/11/18 09:13:34;;;;;;;3.13;1.65;;;;;;;9.23;81.65;101715.34;4966285;28;20039;-71
2023/11/18 09:16:04;;;;;;;2.47;1.80;;;;;;;9.38;81.22;101712.13;4963112;28;20122;-71
2023/11/18 09:18:32;;;;;;;2.75;1.60;;;;;;;9.50;79.54;101715.75;4968291;28;20113;-71
2023/11/18 09:21:01;;;;;;;2.70;1.40;;;;;;;9.49;80.32;101713.38;4960832;28;20122;-71
2023/11/18 09:23:29;;;;;;;2.85;1.67;;;;;;;9.50;79.53;101704.19;4976395;28;20086;-71
2023/11/18 09:25:54;;;;;;;3.35;1.52;;;;;;;9.41;80.54;101703.41;4963308;28;20029;-70
2023/11/18 09:28:22;;;;;;;2.17;1.77;;;;;;;9.46;80.37;101698.69;4963536;28;20030;-71
2023/11/18 09:30:53;;;;;;;3.13;1.48;;;;;;;9.38;80.90;101687.94;4966213;28;20190;-70
2023/11/18 09:33:25;;;;;;;5.80;1.77;;;;;;;9.35;81.37;101699.34;4966134;28;20106;-71
2023/11/18 09:35:58;;;;;;;2.03;1.40;;;;;;;9.39;81.24;101692.22;4966517;28;20038;-70
2023/11/18 09:38:31;;;;;;;2.88;1.63;;;;;;;9.37;80.93;101681.00;4979464;28;20039;-71
2023/11/18 09:41:02;;;;;;;2.50;1.48;;;;;;;9.42;80.87;101683.50;4974086;28;20046;-71
2023/11/18 09:43:56;;;;;;;2.53;1.20;;;;;;;9.35;81.32;101686.66;4971745;28;20022;-71
2023/11/18 09:46:26;;;;;;;1.88;1.35;;;;;;;9.48;79.68;101676.84;4975365;28;20047;-70
2023/11/18 09:49:33;;;;;;;2.47;1.55;;;;;;;9.52;80.62;101692.03;4973716;28;20074;-70
2023/11/18 09:52:04;;;;;;;3.58;1.88;;;;;;;9.64;80.84;101702.88;4971829;28;20043;-72
2023/11/18 09:54:36;;;;;;;2.65;1.27;;;;;;;9.77;79.44;101695.72;4970282;28;20035;-72
2023/11/18 09:57:12;;;;;;;2.00;1.42;;;;;;;9.81;79.36;101688.59;4961920;28;20055;-71
2023/11/18 10:00:10;;;;;;;2.28;1.65;;;;;;;9.96;78.93;101679.94;4962894;28;20066;-71
2023/11/18 10:02:40;;;;;;;2.58;1.25;;;;;;;10.06;76.84;101678.78;4965111;28;20066;-72
2023/11/18 10:05:12;;;;;;;1.13;0.88;;;;;;;10.09;74.62;101678.94;4983865;28;20018;-72
2023/11/18 10:07:41;;;;;;;0.73;0.73;;;;;;;10.10;74.17;101675.16;4970857;28;20066;-72
2023/11/18 10:10:14;;;;;;;1.55;0.68;;;;;;;10.10;73.12;101677.84;4966592;28;20409;-71
2023/11/18 10:12:52;;;;;;;2.08;1.05;;;;;;;10.20;74.00;101682.84;4968156;28;20026;-71
2023/11/18 10:15:23;;;;;;;2.13;1.00;;;;;;;10.23;73.24;101666.03;4970301;28;20031;-72
2023/11/18 10:17:58;;;;;;;2.00;1.83;;;;;;;10.41;72.16;101675.59;4979042;28;20058;-72
2023/11/18 10:20:47;;;;;;;1.23;0.95;;;;;;;10.47;72.03;101679.63;4965259;28;20057;-71
2023/11/18 10:23:22;;;;;;;1.35;1.05;;;;;;;10.56;70.30;101669.59;4967787;28;20138;-72
2023/11/18 10:25:52;;;;;;;1.27;1.02;;;;;;;10.56;69.90;101677.69;4967856;28;20386;-70
2023/11/18 10:28:29;;;;;;;2.55;1.38;;;;;;;10.50;69.31;101668.22;4960573;28;20026;-70
2023/11/18 10:31:04;;;;;;;1.75;0.90;;;;;;;10.49;69.70;101671.25;4972059;28;20750;-70
2023/11/18 10:33:37;;;;;;;1.13;1.00;;;;;;;10.52;70.65;101670.59;4969878;28;20050;-70
2023/11/18 10:36:12;;;;;;;2.22;0.98;;;;;;;10.41;69.74;101662.13;4968820;28;20495;-69
2023/11/18 10:38:43;;;;;;;1.58;0.73;;;;;;;10.33;70.66;101652.22;4983434;28;20035;-70
2023/11/18 10:41:09;;;;;;;2.30;1.40;;;;;;;10.23;72.59;101639.13;4969626;28;20762;-70
2023/11/18 10:43:35;;;;;;;2.10;1.08;;;;;;;10.23;72.82;101631.06;4968581;28;20397;-70
2023/11/18 10:46:11;;;;;;;1.48;0.57;;;;;;;10.28;70.47;101633.53;4985351;28;20464;-70
2023/11/18 10:48:41;;;;;;;0.90;0.90;;;;;;;10.27;68.86;101640.06;4965913;28;20037;-70
2023/11/18 10:51:12;;;;;;;1.10;0.70;;;;;;;10.15;69.07;101637.28;4967618;28;20043;-70
2023/11/18 10:53:53;;;;;;;0.95;0.85;;;;;;;10.15;69.73;101639.19;4970709;28;20125;-72
2023/11/18 10:56:28;;;;;;;0.98;0.85;;;;;;;10.14;68.48;101638.41;4964887;28;20038;-71
2023/11/18 10:59:16;;;;;;;1.75;0.82;;;;;;;10.03;69.67;101627.19;4954688;28;20054;-72
2023/11/18 11:01:43;;;;;;;0.77;0.77;;;;;;;9.96;70.20;101634.22;4989419;28;20042;-69
2023/11/18 11:04:13;;;;;;;0.77;0.77;;;;;;;10.04;68.60;101625.31;4962981;28;20019;-72
2023/11/18 11:06:53;;;;;;;0.75;0.75;;;;;;;10.01;68.79;101618.66;4966283;28;20034;-72
2023/11/18 11:09:24;;;;;;;3.08;1.05;;;;;;;10.08;68.71;101602.00;4966462;28;20237;-72
2023/11/18 11:11:55;;;;;;;0.88;0.82;;;;;;;9.96;68.97;101607.31;4970256;28;20037;-72
2023/11/18 11:14:24;;;;;;;1.35;0.90;;;;;;;10.10;69.02;101605.19;4968925;28;20043;-72
2023/11/18 11:16:55;;;;;;;0.55;0.55;;;;;;;10.15;67.93;101591.53;4968922;28;20101;-69
2023/11/18 11:19:33;;;;;;;0.80;0.65;;;;;;;10.12;67.81;101581.44;4982352;28;20519;-70
2023/11/18 11:22:15;;;;;;;2.97;1.40;;;;;;;10.11;67.49;101582.53;4960912;28;20035;-72
2023/11/18 11:24:59;;;;;;;0.55;0.55;;;;;;;10.23;66.88;101582.59;4965637;28;20031;-71
2023/11/18 11:27:41;;;;;;;0.95;0.85;;;;;;;10.28;67.57;101574.31;4969292;28;20043;-72
2023/11/18 11:30:21;;;;;;;0.57;0.57;;;;;;;10.30;66.92;101577.47;4960625;28;20042;-72
2023/11/18 11:32:53;;;;;;;2.38;0.80;;;;;;;10.26;65.55;101571.16;4961213;28;21040;-69
2023/11/18 11:35:31;;;;;;;1.08;0.55;;;;;;;10.17;65.94;101567.75;4971592;28;20054;-69
2023/11/18 11:38:03;;;;;;;0.73;0.70;;;;;;;10.09;65.03;101560.50;4964747;28;20564;-69
2023/11/18 11:40:31;;;;;;;1.00;0.70;;;;;;;10.07;66.46;101554.66;4967800;28;20031;-69
2023/11/18 11:42:57;;;;;;;0.57;0.50;;;;;;;10.07;65.99;101554.66;4981402;28;20560;-69